Time;durP1;ratioP1;P1;durP2;ratioP2;P2;SDS_P1;SDS_P2;PMS_P1;PMS_P2;Temp;Humidity;BMP_temperature;BMP_pressure;BME280_temperature;BME280_humidity;BME280_pressure;Samples;Min_cycle;Max_cycle;Signal;HPM_P1;HPM_P2
2022/07/11 00:02:19;;;;;;;6.13;1.80;;;16.60;99.90;;;;;;5056365;28;20436;-48
2022/07/11 00:04:46;;;;;;;2.80;1.27;;;16.50;99.90;;;;;;5056648;28;20436;-49
2022/07/11 00:07:13;;;;;;;3.93;1.50;;;16.50;99.90;;;;;;5056856;28;20937;-50
2022/07/11 00:09:42;;;;;;;3.50;1.60;;;16.50;99.90;;;;;;5056362;28;20488;-52
2022/07/11 00:12:09;;;;;;;7.47;2.43;;;16.50;99.90;;;;;;5056786;28;20456;-45
2022/07/11 00:14:39;;;;;;;7.80;1.87;;;16.50;99.90;;;;;;5055921;28;20440;-45
2022/07/11 00:17:07;;;;;;;2.47;1.57;;;16.50;99.90;;;;;;5056268;28;20440;-44
2022/07/11 00:19:36;;;;;;;4.97;1.60;;;16.50;99.90;;;;;;5056502;28;20446;-45
2022/07/11 00:22:03;;;;;;;3.23;1.63;;;16.50;99.90;;;;;;5055899;28;20451;-47
2022/07/11 00:24:30;;;;;;;3.70;1.40;;;16.50;99.90;;;;;;5056827;28;20448;-46
2022/07/11 00:27:00;;;;;;;8.13;2.10;;;16.40;99.90;;;;;;5096498;22;20491;-51
2022/07/11 00:29:28;;;;;;;5.70;1.63;;;16.40;99.90;;;;;;5078707;28;20451;-55
2022/07/11 00:31:58;;;;;;;8.60;1.63;;;16.40;99.90;;;;;;5078940;28;20467;-55
2022/07/11 00:34:25;;;;;;;5.00;1.47;;;16.40;99.90;;;;;;5078572;28;20448;-47
2022/07/11 00:36:52;;;;;;;3.73;1.67;;;16.30;99.90;;;;;;5077847;28;20522;-50
2022/07/11 00:39:22;;;;;;;6.17;1.33;;;16.20;99.90;;;;;;5069207;28;20446;-52
2022/07/11 00:41:49;;;;;;;3.70;1.43;;;16.10;99.90;;;;;;5074680;28;20538;-54
2022/07/11 00:44:17;;;;;;;4.73;1.33;;;16.10;99.90;;;;;;5071327;28;20455;-50
2022/07/11 00:46:44;;;;;;;9.23;1.60;;;16.00;99.90;;;;;;5076977;28;20443;-53
2022/07/11 00:49:11;;;;;;;11.00;2.00;;;16.00;99.90;;;;;;5077300;28;20523;-48
2022/07/11 00:51:38;;;;;;;7.13;1.60;;;16.00;99.90;;;;;;5077352;28;20450;-43
2022/07/11 00:54:08;;;;;;;5.87;1.60;;;15.90;99.90;;;;;;5077173;28;20446;-57
2022/07/11 00:56:35;;;;;;;7.93;1.67;;;15.80;99.90;;;;;;5076812;28;20460;-47
2022/07/11 00:59:02;;;;;;;1.43;1.27;;;15.80;99.90;;;;;;5076596;28;20534;-54
2022/07/11 01:01:33;;;;;;;9.33;1.53;;;15.70;99.90;;;;;;5076445;28;20915;-58
2022/07/11 01:03:59;;;;;;;1.30;1.10;;;15.70;99.90;;;;;;5076860;28;20464;-55
2022/07/11 01:06:26;;;;;;;3.40;1.60;;;15.70;99.90;;;;;;5076651;28;20467;-54
2022/07/11 01:08:53;;;;;;;2.80;1.40;;;15.60;99.90;;;;;;5077233;28;20431;-46
2022/07/11 01:11:21;;;;;;;5.83;1.30;;;15.50;99.90;;;;;;5077301;28;20451;-46
2022/07/11 01:13:48;;;;;;;3.77;1.63;;;15.40;99.90;;;;;;5076571;28;20523;-47
2022/07/11 01:16:16;;;;;;;3.90;1.73;;;15.40;99.90;;;;;;5076363;28;20530;-52
2022/07/11 01:18:50;;;;;;;3.00;1.47;;;15.30;99.90;;;;;;5075945;28;20451;-49
2022/07/11 01:21:24;;;;;;;6.70;2.10;;;15.30;99.90;;;;;;5077611;28;20451;-51
2022/07/11 01:23:53;;;;;;;3.40;1.43;;;15.30;99.90;;;;;;5077377;28;20450;-50
2022/07/11 01:26:21;;;;;;;2.07;1.13;;;15.30;99.90;;;;;;5077217;28;20514;-54
2022/07/11 01:28:48;;;;;;;6.70;1.57;;;15.20;99.90;;;;;;5076991;28;20428;-49
2022/07/11 01:31:19;;;;;;;3.20;1.23;;;15.20;99.90;;;;;;5076451;28;20523;-50
2022/07/11 01:33:46;;;;;;;3.17;1.83;;;15.20;99.90;;;;;;5076642;28;20411;-51
2022/07/11 01:36:13;;;;;;;4.63;1.50;;;15.10;99.90;;;;;;5076163;28;20499;-54
2022/07/11 01:38:40;;;;;;;6.63;2.20;;;15.10;99.90;;;;;;5075901;28;20471;-45
2022/07/11 01:41:08;;;;;;;4.00;1.60;;;15.10;99.90;;;;;;5075708;28;20505;-51
2022/07/11 01:43:39;;;;;;;4.40;1.33;;;15.00;99.90;;;;;;5075656;28;20447;-49
2022/07/11 01:46:08;;;;;;;3.30;1.57;;;15.00;99.90;;;;;;5075914;28;20414;-43
2022/07/11 01:48:35;;;;;;;6.13;1.20;;;15.00;99.90;;;;;;5075445;28;20471;-45
2022/07/11 01:51:02;;;;;;;5.90;2.23;;;15.00;99.90;;;;;;5074731;28;20464;-45
2022/07/11 01:53:29;;;;;;;5.53;2.03;;;14.90;99.90;;;;;;5075096;28;20478;-41
2022/07/11 01:55:56;;;;;;;3.10;1.67;;;14.90;99.90;;;;;;5075180;28;20456;-50
2022/07/11 01:58:24;;;;;;;5.70;2.47;;;14.90;99.90;;;;;;5075307;28;20443;-47
2022/07/11 02:00:51;;;;;;;3.30;1.40;;;14.80;99.90;;;;;;5074753;28;20479;-53
2022/07/11 02:03:17;;;;;;;5.10;1.90;;;14.80;99.90;;;;;;5073685;28;20494;-52
2022/07/11 02:05:45;;;;;;;2.40;1.50;;;14.70;99.90;;;;;;5074743;28;20485;-42
2022/07/11 02:08:14;;;;;;;9.07;1.70;;;14.70;99.90;;;;;;5074667;28;20459;-43
2022/07/11 02:10:44;;;;;;;4.23;1.60;;;14.70;99.90;;;;;;5075217;28;20419;-51
2022/07/11 02:13:12;;;;;;;6.17;1.70;;;14.70;99.90;;;;;;5075321;28;20451;-52
2022/07/11 02:15:41;;;;;;;2.20;1.40;;;14.60;99.90;;;;;;5075563;28;20508;-58
2022/07/11 02:18:10;;;;;;;2.77;1.40;;;14.60;99.90;;;;;;5075953;28;20458;-46
2022/07/11 02:20:37;;;;;;;2.33;1.50;;;14.60;99.90;;;;;;5075574;28;20534;-47
2022/07/11 02:23:04;;;;;;;3.60;1.40;;;14.60;99.90;;;;;;5075170;28;20438;-43
2022/07/11 02:25:34;;;;;;;11.27;2.70;;;14.60;99.90;;;;;;5074671;28;20458;-46
2022/07/11 02:28:05;;;;;;;3.30;1.47;;;14.60;99.90;;;;;;5074828;28;20531;-52
2022/07/11 02:30:34;;;;;;;3.73;1.80;;;14.50;99.90;;;;;;5074515;28;20492;-50
2022/07/11 02:33:02;;;;;;;5.03;1.93;;;14.50;99.90;;;;;;5074653;28;20538;-49
2022/07/11 02:35:29;;;;;;;3.70;1.67;;;14.50;99.90;;;;;;5074638;28;20466;-46
2022/07/11 02:37:56;;;;;;;2.30;1.93;;;14.50;99.90;;;;;;5074658;28;20443;-49
2022/07/11 02:40:23;;;;;;;6.80;1.63;;;14.40;99.90;;;;;;5074202;28;20471;-48
2022/07/11 02:42:52;;;;;;;2.80;1.60;;;14.40;99.90;;;;;;5074077;28;20447;-45
2022/07/11 02:45:22;;;;;;;7.83;1.50;;;14.40;99.90;;;;;;5074520;28;20490;-43
2022/07/11 02:47:49;;;;;;;4.17;1.90;;;14.40;99.90;;;;;;5074672;28;20458;-44
2022/07/11 02:50:18;;;;;;;3.40;1.70;;;14.30;99.90;;;;;;5074491;28;20475;-50
2022/07/11 02:52:47;;;;;;;5.43;2.10;;;14.30;99.90;;;;;;5074056;28;20901;-49
2022/07/11 02:55:15;;;;;;;3.93;1.73;;;14.30;99.90;;;;;;5074428;28;20450;-48
2022/07/11 02:57:42;;;;;;;3.73;1.60;;;14.30;99.90;;;;;;5075348;28;20458;-54
2022/07/11 03:00:18;;;;;;;7.00;1.67;;;14.20;99.90;;;;;;5074224;28;20419;-52
2022/07/11 03:02:45;;;;;;;6.17;1.70;;;14.20;99.90;;;;;;5066030;28;20431;-55
2022/07/11 03:05:13;;;;;;;9.20;2.20;;;14.20;99.90;;;;;;5074055;28;20469;-52
2022/07/11 03:07:41;;;;;;;2.60;1.60;;;14.20;99.90;;;;;;5073908;28;20459;-48
2022/07/11 03:10:09;;;;;;;8.40;1.87;;;14.20;99.90;;;;;;5074196;28;20526;-50
2022/07/11 03:12:36;;;;;;;6.50;1.90;;;14.20;99.90;;;;;;5074554;28;20454;-50
2022/07/11 03:15:03;;;;;;;18.73;2.87;;;14.10;99.90;;;;;;5073233;28;20491;-49
2022/07/11 03:17:30;;;;;;;2.77;1.60;;;14.20;99.90;;;;;;5073795;28;20446;-49
2022/07/11 03:19:57;;;;;;;3.60;1.80;;;14.20;99.90;;;;;;5074283;28;20481;-51
2022/07/11 03:22:24;;;;;;;2.80;1.77;;;14.20;99.90;;;;;;5074118;28;20495;-48
2022/07/11 03:24:52;;;;;;;9.03;2.57;;;14.20;99.90;;;;;;5073389;28;20442;-49
2022/07/11 03:27:20;;;;;;;6.37;1.80;;;14.10;99.90;;;;;;5074288;28;20506;-53
2022/07/11 03:29:47;;;;;;;4.83;1.80;;;14.10;99.90;;;;;;5073697;28;20450;-50
2022/07/11 03:32:14;;;;;;;2.30;1.60;;;14.10;99.90;;;;;;5074918;28;20439;-48
2022/07/11 03:35:40;;;;;;;4.40;1.70;;;14.00;99.90;;;;;;5074736;28;20613;-46
2022/07/11 03:37:28;;;;;;;4.77;1.97;;;14.00;99.90;;;;;;5074791;28;20427;-55
2022/07/11 03:39:56;;;;;;;4.13;1.70;;;14.00;99.90;;;;;;5073846;28;20431;-45
2022/07/11 03:42:23;;;;;;;3.07;1.73;;;14.00;99.90;;;;;;5073494;28;20538;-52
2022/07/11 03:44:51;;;;;;;6.17;1.90;;;14.00;99.90;;;;;;5073692;28;20466;-51
2022/07/11 03:47:17;;;;;;;3.03;1.70;;;14.00;99.90;;;;;;5072949;28;20483;-52
2022/07/11 03:49:44;;;;;;;3.20;1.63;;;13.90;99.90;;;;;;5073227;28;20444;-49
2022/07/11 03:52:14;;;;;;;3.30;1.63;;;13.90;99.90;;;;;;5073290;28;20507;-50
2022/07/11 03:54:43;;;;;;;1.70;1.60;;;13.80;99.90;;;;;;5074005;28;20458;-49
2022/07/11 03:57:11;;;;;;;4.27;2.57;;;13.90;99.90;;;;;;5073800;28;20443;-51
2022/07/11 03:59:40;;;;;;;6.80;1.80;;;13.80;99.90;;;;;;5073457;28;20542;-46
2022/07/11 04:02:06;;;;;;;6.57;2.37;;;13.80;99.90;;;;;;5073410;28;20498;-48
2022/07/11 04:04:33;;;;;;;4.27;1.90;;;13.80;99.90;;;;;;5073520;28;20483;-47
2022/07/11 04:07:03;;;;;;;5.07;2.00;;;13.90;99.90;;;;;;5072991;28;20487;-42
2022/07/11 04:09:31;;;;;;;10.20;1.93;;;13.80;99.90;;;;;;5073731;28;20427;-45
2022/07/11 04:11:58;;;;;;;6.20;2.23;;;13.90;99.90;;;;;;5073213;28;20486;-47
2022/07/11 04:14:26;;;;;;;7.93;1.83;;;13.90;99.90;;;;;;5073876;28;20431;-48
2022/07/11 04:16:53;;;;;;;2.80;1.70;;;13.80;99.90;;;;;;5074904;28;20471;-48
2022/07/11 04:19:19;;;;;;;6.80;1.57;;;13.80;99.90;;;;;;5076582;28;20459;-51
2022/07/11 04:21:46;;;;;;;4.83;2.03;;;13.90;99.90;;;;;;5078618;28;20497;-53
2022/07/11 04:24:13;;;;;;;3.90;1.93;;;13.90;99.90;;;;;;5078525;28;20867;-51
2022/07/11 04:26:40;;;;;;;7.37;2.20;;;13.90;99.90;;;;;;5071532;28;20478;-54
2022/07/11 04:29:07;;;;;;;9.80;1.80;;;13.90;99.90;;;;;;5077028;28;20463;-47
2022/07/11 04:31:35;;;;;;;5.83;4.60;;;13.90;99.90;;;;;;5076268;28;20504;-51
2022/07/11 04:34:02;;;;;;;4.47;1.53;;;13.90;99.90;;;;;;5075919;28;20467;-50
2022/07/11 04:36:29;;;;;;;2.30;1.77;;;14.00;99.90;;;;;;5076349;28;20503;-47
2022/07/11 04:38:56;;;;;;;4.43;2.17;;;14.00;99.90;;;;;;5076399;28;20469;-45
2022/07/11 04:41:23;;;;;;;6.53;2.47;;;14.00;99.90;;;;;;5076631;28;20560;-47
2022/07/11 04:43:49;;;;;;;3.87;2.57;;;14.10;99.90;;;;;;5070933;28;20419;-50
2022/07/11 04:46:16;;;;;;;5.90;2.07;;;14.10;99.90;;;;;;5070302;28;20447;-45
2022/07/11 04:48:44;;;;;;;5.90;1.70;;;14.10;99.90;;;;;;5077018;28;20471;-46
2022/07/11 04:51:11;;;;;;;6.70;2.03;;;14.10;99.90;;;;;;5076976;28;20455;-46
2022/07/11 04:53:38;;;;;;;4.90;2.03;;;14.20;99.90;;;;;;5077161;28;20450;-51
2022/07/11 04:56:07;;;;;;;3.83;1.77;;;14.20;99.90;;;;;;5077125;28;20428;-47
2022/07/11 04:58:34;;;;;;;7.10;2.20;;;14.20;99.90;;;;;;5076956;28;20446;-52
2022/07/11 05:01:01;;;;;;;6.97;2.17;;;14.30;99.90;;;;;;5076148;28;20502;-50
2022/07/11 05:03:28;;;;;;;6.50;2.00;;;14.20;99.90;;;;;;5076786;28;20495;-45
2022/07/11 05:05:56;;;;;;;4.33;2.73;;;14.30;99.90;;;;;;5077117;28;20447;-52
2022/07/11 05:08:23;;;;;;;8.73;3.10;;;14.30;99.90;;;;;;5077960;28;20427;-50
2022/07/11 05:10:50;;;;;;;8.33;2.03;;;14.30;99.90;;;;;;5068442;28;20503;-53
2022/07/11 05:13:17;;;;;;;5.87;2.20;;;14.30;99.90;;;;;;5076207;28;20526;-51
2022/07/11 05:15:47;;;;;;;4.30;1.90;;;14.30;99.90;;;;;;5076782;28;20435;-48
2022/07/11 05:18:13;;;;;;;7.03;1.90;;;14.40;99.90;;;;;;5076293;28;20507;-54
2022/07/11 05:20:42;;;;;;;6.93;2.47;;;14.40;99.90;;;;;;5076500;28;20474;-48
2022/07/11 05:23:10;;;;;;;5.80;2.10;;;14.40;99.90;;;;;;5076617;28;20489;-53
2022/07/11 05:25:39;;;;;;;3.37;2.10;;;14.50;99.90;;;;;;5076362;28;20458;-50
2022/07/11 05:28:08;;;;;;;6.07;2.07;;;14.50;99.90;;;;;;5076280;28;20488;-55
2022/07/11 05:30:35;;;;;;;6.50;2.57;;;14.50;99.90;;;;;;5075839;28;20530;-59
2022/07/11 05:33:02;;;;;;;4.23;1.70;;;14.60;99.90;;;;;;5076058;28;20459;-52
2022/07/11 05:35:29;;;;;;;10.47;2.20;;;14.60;99.90;;;;;;5075978;28;20550;-46
2022/07/11 05:37:56;;;;;;;6.50;2.00;;;14.60;99.90;;;;;;5075794;28;20412;-59
2022/07/11 05:40:24;;;;;;;5.77;2.70;;;14.60;99.90;;;;;;5076216;28;20450;-48
2022/07/11 05:42:51;;;;;;;9.00;2.63;;;14.60;99.90;;;;;;5077017;28;20469;-54
2022/07/11 05:45:18;;;;;;;5.00;2.00;;;14.70;99.90;;;;;;5076258;28;20478;-42
2022/07/11 05:47:45;;;;;;;2.80;1.80;;;14.80;99.90;;;;;;5076887;28;20527;-55
2022/07/11 05:50:12;;;;;;;5.80;2.00;;;14.90;99.90;;;;;;5077718;28;20471;-58
2022/07/11 05:52:39;;;;;;;7.67;2.27;;;14.90;99.90;;;;;;5076123;28;20447;-49
2022/07/11 05:55:07;;;;;;;6.97;2.10;;;15.00;99.90;;;;;;5076616;28;20450;-53
2022/07/11 05:57:35;;;;;;;5.70;2.27;;;15.10;99.90;;;;;;5075803;28;20479;-56
2022/07/11 06:00:02;;;;;;;3.30;1.70;;;15.20;99.90;;;;;;5076089;28;20439;-46
2022/07/11 06:02:29;;;;;;;4.40;1.70;;;15.20;99.90;;;;;;5075901;28;20486;-55
2022/07/11 06:04:56;;;;;;;4.50;2.10;;;15.30;99.90;;;;;;5075925;28;20459;-52
2022/07/11 06:10:07;;;;;;;6.33;1.83;;;15.40;99.90;;;;;;5075607;28;20482;-49
2022/07/11 06:12:35;;;;;;;4.37;2.10;;;15.40;99.90;;;;;;5076016;28;20503;-57
2022/07/11 06:15:03;;;;;;;5.53;2.10;;;15.50;99.90;;;;;;5076385;28;20451;-53
2022/07/11 06:17:30;;;;;;;6.37;2.30;;;15.50;99.90;;;;;;5076908;28;20483;-59
2022/07/11 06:19:56;;;;;;;4.03;2.00;;;15.70;99.90;;;;;;5077228;28;20498;-57
2022/07/11 06:22:23;;;;;;;3.93;2.00;;;15.70;99.90;;;;;;5075948;28;20481;-61
2022/07/11 06:24:50;;;;;;;5.90;2.70;;;15.70;99.90;;;;;;5072135;28;20447;-61
2022/07/11 06:27:17;;;;;;;5.70;1.90;;;15.80;99.90;;;;;;5071348;28;20461;-53
2022/07/11 06:29:45;;;;;;;8.43;1.77;;;15.90;99.90;;;;;;5070134;28;20512;-55
2022/07/11 06:32:12;;;;;;;12.03;2.40;;;15.80;99.90;;;;;;5069507;28;20479;-45
2022/07/11 06:34:39;;;;;;;6.00;1.80;;;15.90;99.90;;;;;;5073412;28;20436;-47
2022/07/11 06:37:06;;;;;;;3.30;2.50;;;16.00;99.90;;;;;;5073127;28;20454;-54
2022/07/11 06:39:32;;;;;;;5.00;2.00;;;16.00;99.90;;;;;;5072770;28;20459;-48
2022/07/11 06:41:59;;;;;;;10.23;2.53;;;16.00;99.90;;;;;;5071234;28;20525;-50
2022/07/11 06:44:26;;;;;;;9.40;2.10;;;16.00;99.90;;;;;;5071931;28;20519;-51
2022/07/11 06:46:54;;;;;;;3.37;1.90;;;16.10;99.90;;;;;;5071846;28;20455;-54
2022/07/11 06:49:21;;;;;;;10.17;3.33;;;16.30;99.90;;;;;;5074824;28;20446;-59
2022/07/11 06:51:48;;;;;;;4.73;1.90;;;16.30;99.90;;;;;;5074007;28;20434;-40
2022/07/11 06:54:15;;;;;;;4.73;2.13;;;16.40;99.90;;;;;;5056525;28;20447;-51
2022/07/11 06:56:42;;;;;;;6.30;1.93;;;16.50;99.90;;;;;;5055394;28;20479;-50
2022/07/11 06:59:09;;;;;;;6.57;2.00;;;16.60;99.90;;;;;;5072479;28;20501;-52
2022/07/11 07:01:36;;;;;;;3.70;1.97;;;16.70;99.90;;;;;;5060842;28;20444;-52
2022/07/11 07:04:07;;;;;;;8.03;2.17;;;16.80;99.90;;;;;;5071804;28;20486;-53
2022/07/11 07:06:34;;;;;;;11.03;2.40;;;16.80;99.90;;;;;;5072462;28;20442;-47
2022/07/11 07:09:03;;;;;;;2.77;1.63;;;16.90;99.90;;;;;;5075044;28;20994;-51
2022/07/11 07:11:29;;;;;;;9.53;2.37;;;17.00;99.90;;;;;;5073117;28;20420;-50
2022/07/11 07:13:56;;;;;;;6.90;2.50;;;17.20;99.90;;;;;;5074335;28;20459;-44
2022/07/11 07:16:23;;;;;;;2.60;1.63;;;17.40;99.90;;;;;;5074583;28;20527;-46
2022/07/11 07:18:50;;;;;;;9.67;2.43;;;17.60;99.90;;;;;;5075334;28;20427;-49
2022/07/11 07:21:20;;;;;;;3.70;2.40;;;17.90;99.90;;;;;;5067001;28;20478;-44
2022/07/11 07:23:50;;;;;;;6.17;3.03;;;18.10;99.90;;;;;;5070492;28;20477;-53
2022/07/11 07:26:18;;;;;;;2.50;1.40;;;18.80;99.90;;;;;;5073166;28;20465;-46
2022/07/11 07:28:46;;;;;;;4.67;2.23;;;19.80;99.90;;;;;;5066849;28;20478;-47
2022/07/11 07:31:13;;;;;;;5.80;2.93;;;20.70;99.90;;;;;;5067232;28;20464;-49
2022/07/11 07:33:40;;;;;;;2.33;1.70;;;21.00;99.90;;;;;;5074543;28;20439;-47
2022/07/11 07:36:07;;;;;;;6.10;2.20;;;21.10;99.90;;;;;;5073395;28;20427;-45
2022/07/11 07:38:35;;;;;;;6.73;1.40;;;20.70;99.90;;;;;;5065063;28;20456;-48
2022/07/11 07:41:02;;;;;;;4.50;1.93;;;20.60;99.90;;;;;;5074926;28;20439;-44
2022/07/11 07:43:31;;;;;;;6.93;2.60;;;20.60;99.90;;;;;;5073968;28;20478;-44
2022/07/11 07:45:58;;;;;;;4.77;1.93;;;20.70;99.90;;;;;;5075151;28;20491;-40
2022/07/11 07:48:25;;;;;;;3.27;1.40;;;20.90;99.90;;;;;;5066446;28;20482;-56
2022/07/11 07:50:53;;;;;;;3.73;2.63;;;21.20;99.90;;;;;;5075021;28;20436;-41
2022/07/11 07:53:20;;;;;;;4.47;1.80;;;21.60;99.90;;;;;;5076659;28;20427;-47
2022/07/11 07:55:49;;;;;;;10.50;1.93;;;22.10;99.90;;;;;;5078574;28;20467;-42
2022/07/11 07:58:16;;;;;;;3.40;1.90;;;22.90;99.90;;;;;;5078066;28;20508;-55
2022/07/11 08:03:27;;;;;;;3.43;1.63;;;25.50;99.90;;;;;;5075907;28;20528;-54
2022/07/11 08:05:57;;;;;;;3.00;1.67;;;26.60;95.00;;;;;;5067507;28;20519;-48
2022/07/11 08:08:24;;;;;;;5.37;2.07;;;26.70;92.60;;;;;;5073466;28;20466;-38
2022/07/11 08:10:52;;;;;;;4.40;2.13;;;27.60;90.50;;;;;;5078105;28;20471;-44
2022/07/11 08:13:19;;;;;;;4.10;1.50;;;28.50;86.80;;;;;;5077331;28;20435;-47
2022/07/11 08:15:47;;;;;;;6.63;2.00;;;29.50;76.30;;;;;;5078631;28;20451;-49
2022/07/11 08:18:14;;;;;;;3.47;1.33;;;30.10;72.30;;;;;;5077373;28;20451;-46
2022/07/11 08:20:41;;;;;;;3.77;1.60;;;30.50;69.00;;;;;;5072339;28;20491;-51
2022/07/11 08:23:08;;;;;;;3.97;2.33;;;31.10;64.70;;;;;;5067505;28;20802;-51
2022/07/11 08:25:34;;;;;;;4.43;1.43;;;31.00;62.80;;;;;;5076686;28;20519;-45
2022/07/11 08:28:03;;;;;;;7.20;1.87;;;31.00;60.90;;;;;;5077142;28;20502;-50
2022/07/11 08:30:30;;;;;;;6.43;1.83;;;31.20;61.10;;;;;;5068824;28;20443;-57
2022/07/11 08:32:57;;;;;;;2.67;1.60;;;31.50;60.20;;;;;;5074201;28;20466;-48
2022/07/11 08:35:25;;;;;;;2.27;1.30;;;31.90;58.30;;;;;;5077118;28;20436;-45
2022/07/11 08:37:52;;;;;;;6.17;1.87;;;32.10;56.50;;;;;;5077138;28;20447;-50
2022/07/11 08:40:20;;;;;;;3.33;1.80;;;32.10;57.10;;;;;;5077294;28;20451;-48
2022/07/11 08:42:47;;;;;;;5.17;2.03;;;31.70;56.50;;;;;;5077283;28;20493;-39
2022/07/11 08:45:17;;;;;;;2.77;1.80;;;31.30;56.60;;;;;;5077500;28;20467;-43
2022/07/11 08:47:44;;;;;;;4.57;1.77;;;30.40;57.00;;;;;;5077466;28;20535;-48
2022/07/11 08:50:13;;;;;;;8.50;1.97;;;29.30;59.50;;;;;;5075555;28;20466;-48
2022/07/11 08:52:40;;;;;;;4.53;2.10;;;29.30;60.90;;;;;;5075638;28;20491;-45
2022/07/11 08:55:07;;;;;;;6.80;3.87;;;29.60;59.80;;;;;;5077167;28;20427;-51
2022/07/11 08:57:35;;;;;;;5.43;1.70;;;30.10;59.80;;;;;;5076846;28;20433;-45
2022/07/11 09:00:03;;;;;;;2.27;1.60;;;30.30;57.90;;;;;;5075272;28;20490;-53
2022/07/11 09:02:33;;;;;;;3.43;2.27;;;30.70;57.80;;;;;;5076598;28;20490;-47
2022/07/11 09:04:59;;;;;;;6.23;1.60;;;30.50;56.90;;;;;;5076022;28;20466;-46
2022/07/11 09:07:28;;;;;;;5.20;1.67;;;29.80;57.50;;;;;;5076234;28;20487;-44
2022/07/11 09:09:55;;;;;;;3.67;2.03;;;30.10;58.80;;;;;;5074681;28;20447;-52
2022/07/11 09:12:22;;;;;;;3.53;1.83;;;30.80;58.30;;;;;;5066701;28;20569;-53
2022/07/11 09:14:51;;;;;;;4.47;1.90;;;30.90;57.20;;;;;;5071768;28;20486;-50
2022/07/11 09:17:26;;;;;;;2.87;1.60;;;31.20;57.40;;;;;;5070372;28;20439;-51
2022/07/11 09:19:54;;;;;;;2.53;1.70;;;31.70;56.80;;;;;;5068987;28;20462;-48
2022/07/11 09:25:31;;;;;;;4.27;1.53;;;31.10;55.90;;;;;;5071395;28;20478;-54
2022/07/11 09:28:04;;;;;;;5.77;1.90;;;29.90;57.00;;;;;;5071120;28;20428;-49
2022/07/11 09:30:32;;;;;;;4.60;1.70;;;29.80;57.50;;;;;;5068836;28;20953;-56
2022/07/11 09:33:01;;;;;;;2.67;1.43;;;30.10;58.10;;;;;;5072325;28;20465;-50
2022/07/11 09:35:31;;;;;;;2.03;1.37;;;30.40;57.30;;;;;;5069116;28;20469;-45
2022/07/11 09:37:58;;;;;;;2.83;1.50;;;31.00;55.90;;;;;;5069783;28;20482;-43
2022/07/11 09:40:26;;;;;;;3.23;1.40;;;31.30;55.50;;;;;;5071363;28;20479;-48
2022/07/11 09:42:55;;;;;;;2.60;1.67;;;31.10;55.10;;;;;;5071598;28;20513;-50
2022/07/11 09:45:23;;;;;;;3.23;1.60;;;30.10;56.30;;;;;;5072839;28;20463;-41
2022/07/11 09:47:51;;;;;;;3.30;1.60;;;29.80;57.40;;;;;;5072982;28;20435;-48
2022/07/11 09:50:19;;;;;;;5.60;1.50;;;30.10;57.20;;;;;;5075494;28;20437;-49
2022/07/11 09:53:02;;;;;;;3.10;1.80;;;30.60;55.60;;;;;;5071318;28;20447;-48
2022/07/11 09:55:30;;;;;;;4.10;1.63;;;30.20;55.50;;;;;;5062275;28;21003;-52
2022/07/11 09:57:57;;;;;;;6.00;1.63;;;28.80;57.40;;;;;;5069840;28;20519;-56
2022/07/11 10:00:24;;;;;;;4.20;1.57;;;28.10;60.20;;;;;;5071156;28;20499;-51
2022/07/11 10:02:53;;;;;;;6.90;1.87;;;28.50;59.40;;;;;;5068556;28;20497;-48
2022/07/11 10:05:20;;;;;;;2.10;1.40;;;28.80;58.90;;;;;;5069002;28;20483;-54
2022/07/11 10:07:47;;;;;;;3.93;2.10;;;28.90;59.20;;;;;;5067807;28;20453;-49
2022/07/11 10:10:19;;;;;;;2.80;1.30;;;29.50;57.30;;;;;;5069711;28;20447;-43
2022/07/11 10:12:47;;;;;;;3.43;1.50;;;30.20;56.20;;;;;;5069769;28;20434;-57
2022/07/11 10:15:16;;;;;;;3.50;1.53;;;30.60;55.20;;;;;;5072705;28;20419;-46
2022/07/11 10:17:49;;;;;;;3.83;1.43;;;31.00;54.50;;;;;;5068963;28;20471;-55
2022/07/11 10:20:25;;;;;;;3.10;1.57;;;31.20;54.60;;;;;;5064746;28;20465;-55
2022/07/11 10:22:57;;;;;;;1.60;1.20;;;31.20;53.40;;;;;;5067641;28;20477;-56
2022/07/11 10:25:31;;;;;;;3.00;1.30;;;31.30;53.50;;;;;;5068817;28;20557;-52
2022/07/11 10:28:09;;;;;;;3.93;1.50;;;31.00;53.40;;;;;;5067962;28;20439;-57
2022/07/11 10:30:45;;;;;;;3.00;1.33;;;30.70;53.60;;;;;;5068873;28;20509;-51
2022/07/11 10:33:12;;;;;;;2.97;1.57;;;30.80;53.60;;;;;;5064174;28;20442;-47
2022/07/11 10:35:42;;;;;;;4.23;1.40;;;31.00;52.40;;;;;;5069152;28;20513;-50
2022/07/11 10:38:09;;;;;;;1.50;1.20;;;30.90;53.20;;;;;;5069141;28;20463;-54
2022/07/11 10:40:48;;;;;;;2.90;1.37;;;30.80;54.30;;;;;;5068132;28;20455;-50
2022/07/11 10:43:32;;;;;;;4.10;1.67;;;30.50;53.10;;;;;;5070598;28;20479;-45
2022/07/11 10:46:01;;;;;;;2.63;1.13;;;29.90;53.40;;;;;;5074253;28;20433;-48
2022/07/11 10:48:33;;;;;;;2.20;1.13;;;29.50;54.60;;;;;;5074824;28;20439;-49
2022/07/11 10:51:17;;;;;;;1.70;1.20;;;29.20;55.80;;;;;;5075169;28;20522;-51
2022/07/11 10:53:48;;;;;;;3.30;1.77;;;29.00;55.60;;;;;;5072767;28;20419;-53
2022/07/11 10:56:40;;;;;;;2.30;1.50;;;28.60;56.20;;;;;;5075580;28;20432;-46
2022/07/11 10:59:14;;;;;;;3.93;1.33;;;27.80;57.00;;;;;;5073094;28;20466;-41
2022/07/11 11:02:19;;;;;;;1.90;1.00;;;27.30;58.20;;;;;;5074716;28;20438;-55
2022/07/11 11:04:52;;;;;;;2.13;1.33;;;27.10;58.30;;;;;;5074102;28;20536;-44
2022/07/11 11:07:39;;;;;;;2.73;1.27;;;27.00;57.70;;;;;;5072040;28;20757;-58
2022/07/11 11:10:42;;;;;;;1.60;1.03;;;27.20;56.60;;;;;;5074786;28;20474;-41
2022/07/11 11:13:20;;;;;;;3.77;1.27;;;27.20;57.10;;;;;;5071367;28;20467;-47
2022/07/11 11:15:49;;;;;;;1.70;1.13;;;27.00;57.20;;;;;;5074466;28;20407;-49
2022/07/11 11:18:36;;;;;;;1.93;1.10;;;26.80;56.70;;;;;;5071825;28;20440;-45
2022/07/11 11:21:20;;;;;;;4.47;1.50;;;26.70;57.20;;;;;;5073250;28;20469;-47
2022/07/11 11:24:03;;;;;;;2.47;1.37;;;26.80;58.50;;;;;;5074371;28;20488;-43
2022/07/11 11:26:47;;;;;;;1.97;1.10;;;26.70;56.70;;;;;;5064390;28;20442;-49
2022/07/11 11:29:24;;;;;;;1.30;1.17;;;26.60;56.80;;;;;;5071673;28;20510;-44
2022/07/11 11:31:54;;;;;;;2.00;1.53;;;26.40;57.50;;;;;;5077897;28;20446;-49
2022/07/11 11:34:21;;;;;;;2.30;1.60;;;26.20;57.70;;;;;;5078879;28;20437;-57
2022/07/11 11:36:54;;;;;;;3.60;1.60;;;26.30;58.90;;;;;;5078681;28;20467;-56
2022/07/11 11:39:26;;;;;;;3.73;1.33;;;26.50;58.60;;;;;;5070185;28;20439;-47
2022/07/11 11:41:59;;;;;;;1.40;1.00;;;26.50;58.30;;;;;;5078157;28;20447;-48
2022/07/11 11:44:27;;;;;;;4.00;1.60;;;26.30;57.60;;;;;;5078660;28;20478;-44
2022/07/11 11:46:54;;;;;;;1.63;1.20;;;25.70;58.70;;;;;;5079628;28;20427;-49
2022/07/11 11:49:21;;;;;;;1.97;1.13;;;25.30;58.80;;;;;;5078620;28;20502;-52
2022/07/11 11:51:49;;;;;;;2.27;1.20;;;25.00;58.90;;;;;;5080401;28;20447;-58
2022/07/11 11:54:23;;;;;;;1.73;1.13;;;25.10;58.10;;;;;;5070669;28;20439;-43
2022/07/11 11:56:50;;;;;;;1.67;1.00;;;25.30;57.50;;;;;;5078311;28;20412;-45
2022/07/11 11:59:17;;;;;;;1.50;1.30;;;25.50;57.70;;;;;;5078915;28;20435;-55
2022/07/11 12:01:46;;;;;;;1.80;1.20;;;25.60;57.70;;;;;;5078906;28;20459;-47
2022/07/11 12:04:15;;;;;;;2.60;1.20;;;25.60;58.40;;;;;;5077834;28;20478;-55
2022/07/11 12:06:44;;;;;;;1.90;1.40;;;25.70;59.00;;;;;;5077404;28;20486;-52
2022/07/11 12:09:13;;;;;;;2.50;1.13;;;26.00;59.00;;;;;;5066413;28;20470;-42
2022/07/11 12:11:40;;;;;;;2.37;1.30;;;26.10;58.40;;;;;;5077571;28;20471;-44
2022/07/11 12:14:08;;;;;;;2.87;1.23;;;26.20;57.80;;;;;;5078134;28;20490;-49
2022/07/11 12:16:41;;;;;;;2.00;1.50;;;26.20;57.30;;;;;;5077602;28;20431;-54
2022/07/11 12:19:11;;;;;;;1.13;1.03;;;26.20;56.70;;;;;;5070854;28;20431;-51
2022/07/11 12:21:39;;;;;;;4.17;1.33;;;26.20;57.40;;;;;;5077232;28;20506;-51
2022/07/11 12:24:07;;;;;;;2.20;1.10;;;26.10;57.60;;;;;;5060438;28;20490;-53
2022/07/11 12:26:37;;;;;;;3.20;1.70;;;26.00;56.50;;;;;;5077843;28;20458;-53
2022/07/11 12:29:10;;;;;;;1.67;1.13;;;25.90;56.80;;;;;;5075760;28;20486;-43
2022/07/11 12:31:48;;;;;;;1.60;1.20;;;25.70;57.50;;;;;;5076918;28;20439;-46
2022/07/11 12:34:17;;;;;;;6.40;1.13;;;25.50;57.80;;;;;;5077123;28;20419;-44
2022/07/11 12:36:45;;;;;;;3.73;1.23;;;25.30;58.90;;;;;;5074958;28;20432;-58
2022/07/11 12:39:23;;;;;;;2.47;1.10;;;25.30;59.00;;;;;;5075545;28;20466;-52
2022/07/11 12:41:51;;;;;;;1.30;1.00;;;25.40;57.30;;;;;;5077571;28;20962;-37
2022/07/11 12:47:07;;;;;;;2.43;1.20;;;25.70;57.00;;;;;;5076919;28;20454;-49
2022/07/11 12:49:35;;;;;;;2.47;1.10;;;25.90;56.20;;;;;;5077366;28;20481;-51
2022/07/11 12:52:03;;;;;;;1.77;1.20;;;25.70;56.20;;;;;;5076969;28;20427;-41
2022/07/11 12:54:33;;;;;;;2.90;1.20;;;25.60;56.90;;;;;;5077295;28;20451;-42
2022/07/11 12:57:01;;;;;;;1.70;0.97;;;25.60;56.60;;;;;;5077269;28;20443;-46
2022/07/11 12:59:30;;;;;;;3.53;1.90;;;25.40;57.50;;;;;;5077775;28;20515;-38
2022/07/11 13:01:59;;;;;;;2.00;1.37;;;25.40;58.20;;;;;;5075601;28;20513;-57
2022/07/11 13:04:35;;;;;;;3.57;1.63;;;25.40;59.70;;;;;;5066481;28;20483;-52
2022/07/11 13:10:12;;;;;;;3.63;1.13;;;25.00;59.10;;;;;;5077129;28;20402;-44